createdAt,value
2023-05-12T08:31:36.994Z,500.63
2023-05-12T08:32:16.432Z,489.38
2023-05-12T08:33:16.370Z,489.38
2023-05-12T08:34:14.486Z,495.00
2023-05-12T08:35:19.105Z,506.25
2023-05-12T08:36:16.968Z,523.13
2023-05-12T08:37:14.370Z,540.00
2023-05-12T08:38:15.319Z,545.63
2023-05-12T08:39:28.898Z,551.25
2023-05-12T08:40:14.261Z,568.13
2023-05-12T08:41:14.296Z,590.63
2023-05-12T08:42:14.152Z,618.75
2023-05-12T08:43:19.504Z,646.88
2023-05-12T08:44:14.390Z,669.38
2023-05-12T08:45:14.941Z,675.00
2023-05-12T08:46:15.642Z,680.63
2023-05-12T08:47:14.158Z,697.50
2023-05-12T08:48:14.396Z,714.38
2023-05-12T08:49:13.888Z,731.25
2023-05-12T08:51:57.748Z,804.38
2023-05-12T08:54:30.978Z,922.50
2023-05-12T08:55:30.822Z,950.63
2023-05-12T09:08:12.859Z,1080.00
2023-05-12T09:09:39.488Z,1108.13
2023-05-12T09:19:43.761Z,1310.63
2023-05-12T09:20:44.753Z,1260.00
2023-05-12T09:21:43.085Z,1265.63
2023-05-12T09:51:26.811Z,1895.63
2023-05-12T09:52:26.616Z,1828.13
2023-05-12T09:53:33.471Z,2047.50
2023-05-12T09:54:34.552Z,2261.25
2023-05-12T09:57:45.517Z,1749.38
2023-05-12T10:01:36.789Z,1867.50
2023-05-12T10:02:46.891Z,2745.00
2023-05-12T10:03:36.586Z,3375.00
2023-05-12T10:04:36.661Z,2851.88
2023-05-12T10:05:36.552Z,3420.00
2023-05-12T10:06:37.668Z,2970.00
2023-05-12T10:07:36.457Z,4072.50
2023-05-12T10:08:36.569Z,3526.88
2023-05-12T10:09:36.416Z,3420.00
2023-05-12T10:10:36.377Z,2446.88
2023-05-12T10:11:36.346Z,2311.88
2023-05-12T10:12:36.815Z,3318.75
2023-05-12T10:13:36.267Z,3026.25
2023-05-12T10:14:36.311Z,3813.75
2023-05-12T10:15:36.282Z,2908.13
2023-05-12T10:16:36.261Z,2728.13
2023-05-12T10:17:38.841Z,2649.38
2023-05-12T10:18:36.474Z,2975.63
2023-05-12T10:19:36.138Z,3121.88
2023-05-12T10:20:36.963Z,2250.00
2023-05-12T10:21:36.012Z,3172.50
2023-05-12T10:22:37.881Z,2300.63
2023-05-12T10:23:37.814Z,1946.25
2023-05-12T10:24:35.926Z,1721.25
2023-05-12T10:25:35.922Z,1738.13
2023-05-12T10:26:35.873Z,1996.88
2023-05-12T10:27:35.821Z,1980.00
2023-05-12T10:28:35.791Z,1912.50
2023-05-12T10:29:36.735Z,1766.25
2023-05-12T10:30:35.711Z,1721.25
2023-05-12T10:31:35.720Z,1636.88
2023-05-12T10:32:35.750Z,1575.00
2023-05-12T10:33:35.628Z,1524.38
2023-05-12T10:38:02.945Z,1428.75
2023-05-12T10:39:02.537Z,1428.75
2023-05-12T10:40:12.235Z,1479.38
2023-05-12T10:41:56.161Z,1451.25
2023-05-12T10:42:02.488Z,1496.25
2023-05-12T10:43:02.545Z,1569.38
2023-05-12T10:44:02.403Z,1569.38
2023-05-12T10:45:02.792Z,1603.13
2023-05-12T10:46:02.357Z,1676.25
2023-05-12T10:49:28.347Z,1845.00
2023-05-12T10:50:29.035Z,1833.75
2023-05-12T10:51:41.526Z,1890.00
